Time;durP1;ratioP1;P1;durP2;ratioP2;P2;SDS_P1;SDS_P2;PMS_P1;PMS_P2;Temp;Humidity;BMP_temperature;BMP_pressure;BME280_temperature;BME280_humidity;BME280_pressure;Samples;Min_cycle;Max_cycle;Signal;HPM_P1;HPM_P2
2021/07/01 00:02:15;;;;;;;;;;;27.70;50.80;;;;;;5136368;27;19927;-59
2021/07/01 00:04:43;;;;;;;;;;;27.70;50.80;;;;;;5134649;27;19923;-58
2021/07/01 00:07:10;;;;;;;;;;;27.70;50.80;;;;;;5134188;27;19935;-58
2021/07/01 00:09:37;;;;;;;;;;;27.70;50.80;;;;;;5119316;27;19930;-58
2021/07/01 00:12:04;;;;;;;;;;;27.70;50.80;;;;;;5118285;27;20033;-58
2021/07/01 00:14:31;;;;;;;;;;;27.70;50.80;;;;;;5118371;27;19923;-59
2021/07/01 00:16:58;;;;;;;;;;;27.70;50.80;;;;;;5134054;27;19966;-58
2021/07/01 00:19:25;;;;;;;;;;;27.70;50.80;;;;;;5133114;27;19923;-58
2021/07/01 00:21:52;;;;;;;;;;;27.70;50.70;;;;;;5133596;27;19976;-58
2021/07/01 00:24:19;;;;;;;;;;;27.70;50.70;;;;;;5133211;27;20375;-58
2021/07/01 00:26:46;;;;;;;;;;;27.70;50.70;;;;;;5133512;27;19977;-58
2021/07/01 00:29:13;;;;;;;;;;;27.70;50.70;;;;;;5134614;27;20268;-58
2021/07/01 00:31:40;;;;;;;;;;;27.70;50.70;;;;;;5133713;27;19928;-58
2021/07/01 00:34:07;;;;;;;;;;;27.70;50.70;;;;;;5117292;27;20010;-58
2021/07/01 00:36:34;;;;;;;;;;;27.70;50.70;;;;;;5131156;27;20379;-58
2021/07/01 00:39:02;;;;;;;;;;;27.70;50.70;;;;;;5133230;27;20371;-58
2021/07/01 00:41:29;;;;;;;;;;;27.70;50.70;;;;;;5132120;27;20359;-58
2021/07/01 00:43:56;;;;;;;;;;;27.70;50.60;;;;;;5131886;27;19923;-58
2021/07/01 00:46:23;;;;;;;;;;;27.70;50.70;;;;;;5132909;27;19931;-58
2021/07/01 00:48:50;;;;;;;;;;;27.70;50.70;;;;;;5134442;27;19946;-58
2021/07/01 00:51:17;;;;;;;;;;;27.70;50.70;;;;;;5128384;27;20241;-58
2021/07/01 00:53:44;;;;;;;;;;;27.70;50.70;;;;;;5116670;27;19968;-58
2021/07/01 00:56:14;;;;;;;;;;;27.70;50.60;;;;;;5120856;27;19945;-58
2021/07/01 00:58:41;;;;;;;;;;;27.70;50.70;;;;;;5133461;27;19963;-58
2021/07/01 01:01:08;;;;;;;;;;;27.70;50.60;;;;;;5134955;27;20264;-58
2021/07/01 01:03:36;;;;;;;;;;;27.70;50.60;;;;;;5133781;27;19924;-58
2021/07/01 01:06:04;;;;;;;;;;;27.70;50.60;;;;;;5133655;27;19924;-57
2021/07/01 01:08:30;;;;;;;;;;;27.70;50.60;;;;;;5133345;27;19967;-58
2021/07/01 01:10:58;;;;;;;;;;;27.70;50.60;;;;;;5132670;27;19953;-58
2021/07/01 01:13:25;;;;;;;;;;;27.70;50.60;;;;;;5132658;27;19931;-57
2021/07/01 01:15:53;;;;;;;;;;;27.70;50.60;;;;;;5133076;27;19996;-58
2021/07/01 01:18:21;;;;;;;;;;;27.70;50.60;;;;;;5132491;27;19924;-57
2021/07/01 01:20:48;;;;;;;;;;;27.70;50.60;;;;;;5134954;27;19951;-58
2021/07/01 01:23:16;;;;;;;;;;;27.70;50.60;;;;;;5132255;27;20011;-57
2021/07/01 01:25:53;;;;;;;;;;;27.70;50.60;;;;;;5133480;27;20294;-57
2021/07/01 01:28:20;;;;;;;;;;;27.70;50.60;;;;;;5132981;27;20383;-58
2021/07/01 01:30:47;;;;;;;;;;;27.70;50.60;;;;;;5132503;27;19953;-58
2021/07/01 01:33:14;;;;;;;;;;;27.70;50.60;;;;;;5130401;27;19923;-58
2021/07/01 01:35:41;;;;;;;;;;;27.70;50.60;;;;;;5127519;27;19923;-58
2021/07/01 01:38:10;;;;;;;;;;;27.70;50.60;;;;;;5125576;27;20031;-58
2021/07/01 01:40:38;;;;;;;;;;;27.70;50.60;;;;;;5113823;27;19969;-58
2021/07/01 01:43:05;;;;;;;;;;;27.70;50.50;;;;;;5116341;27;19963;-58
2021/07/01 01:45:32;;;;;;;;;;;27.70;50.60;;;;;;5133460;27;19924;-58
2021/07/01 01:47:59;;;;;;;;;;;27.70;50.50;;;;;;5133581;27;20382;-58
2021/07/01 01:50:26;;;;;;;;;;;27.70;50.50;;;;;;5131853;27;19938;-57
2021/07/01 01:52:53;;;;;;;;;;;27.70;50.50;;;;;;5132378;27;19927;-57
2021/07/01 01:55:21;;;;;;;;;;;27.70;50.50;;;;;;5127418;27;19924;-57
2021/07/01 01:57:49;;;;;;;;;;;27.70;50.50;;;;;;5116129;27;19932;-57
2021/07/01 02:00:17;;;;;;;;;;;27.70;50.50;;;;;;5130255;27;19971;-57
2021/07/01 02:02:44;;;;;;;;;;;27.70;50.50;;;;;;5131195;27;20440;-57
2021/07/01 02:05:11;;;;;;;;;;;27.70;50.50;;;;;;5114605;27;20372;-57
2021/07/01 02:07:39;;;;;;;;;;;27.70;50.50;;;;;;5130939;27;20459;-57
2021/07/01 02:10:08;;;;;;;;;;;27.60;50.40;;;;;;5131421;27;20374;-58
2021/07/01 02:12:35;;;;;;;;;;;27.70;50.50;;;;;;5131754;27;19930;-58
2021/07/01 02:15:07;;;;;;;;;;;27.70;50.50;;;;;;5132232;27;19927;-58
2021/07/01 02:17:34;;;;;;;;;;;27.70;50.40;;;;;;5131277;27;19923;-58
2021/07/01 02:20:06;;;;;;;;;;;27.60;50.40;;;;;;5133901;27;20367;-57
2021/07/01 02:22:33;;;;;;;;;;;27.70;50.40;;;;;;5131593;27;19928;-58
2021/07/01 02:25:01;;;;;;;;;;;27.70;50.40;;;;;;5129934;27;19924;-58
2021/07/01 02:27:28;;;;;;;;;;;27.70;50.40;;;;;;5131477;27;19923;-58
2021/07/01 02:29:55;;;;;;;;;;;27.70;50.40;;;;;;5131249;27;19935;-58
2021/07/01 02:32:22;;;;;;;;;;;27.70;50.40;;;;;;5131122;27;19949;-58
2021/07/01 02:34:49;;;;;;;;;;;27.70;50.40;;;;;;5120403;27;19988;-58
2021/07/01 02:37:16;;;;;;;;;;;27.70;50.40;;;;;;5130799;28;20378;-58
2021/07/01 02:39:43;;;;;;;;;;;27.60;50.30;;;;;;5129565;28;19978;-58
2021/07/01 02:42:10;;;;;;;;;;;27.70;50.40;;;;;;5122696;28;20431;-58
2021/07/01 02:44:38;;;;;;;;;;;27.60;50.30;;;;;;5121564;28;19976;-58
2021/07/01 02:47:05;;;;;;;;;;;27.60;50.30;;;;;;5132269;28;20341;-58
2021/07/01 02:49:32;;;;;;;;;;;27.60;50.30;;;;;;5130638;28;19976;-58
2021/07/01 02:51:59;;;;;;;;;;;27.70;50.40;;;;;;5132492;28;19923;-58
2021/07/01 02:54:26;;;;;;;;;;;27.70;50.40;;;;;;5132037;28;19923;-58
2021/07/01 02:56:53;;;;;;;;;;;27.70;50.40;;;;;;5130817;28;19931;-58
2021/07/01 02:59:20;;;;;;;;;;;27.60;50.30;;;;;;5130835;28;20013;-58
2021/07/01 03:01:47;;;;;;;;;;;27.60;50.30;;;;;;5132111;28;19935;-58
2021/07/01 03:04:15;;;;;;;;;;;27.60;50.30;;;;;;5129393;28;19924;-58
2021/07/01 03:06:43;;;;;;;;;;;27.60;50.30;;;;;;5131898;28;19930;-58
2021/07/01 03:09:10;;;;;;;;;;;27.60;50.30;;;;;;5115271;28;19928;-58
2021/07/01 03:11:38;;;;;;;;;;;27.70;50.40;;;;;;5136404;27;19949;-58
2021/07/01 03:14:06;;;;;;;;;;;27.60;50.30;;;;;;5135427;27;20390;-58
2021/07/01 03:16:33;;;;;;;;;;;27.60;50.30;;;;;;5135393;27;20047;-58
2021/07/01 03:19:02;;;;;;;;;;;27.60;50.30;;;;;;5133991;27;19923;-58
2021/07/01 03:21:31;;;;;;;;;;;27.70;50.30;;;;;;5135952;27;20409;-58
2021/07/01 03:23:58;;;;;;;;;;;27.70;50.30;;;;;;5133252;27;19923;-58
2021/07/01 03:26:25;;;;;;;;;;;27.70;50.30;;;;;;5133232;27;19923;-58
2021/07/01 03:28:52;;;;;;;;;;;27.70;50.30;;;;;;5134496;27;20283;-58
2021/07/01 03:31:19;;;;;;;;;;;27.70;50.30;;;;;;5134636;27;19988;-58
2021/07/01 03:33:46;;;;;;;;;;;27.60;50.20;;;;;;5107117;28;19999;-58
2021/07/01 03:36:13;;;;;;;;;;;27.70;50.30;;;;;;5119884;27;19928;-58
2021/07/01 03:38:40;;;;;;;;;;;27.70;50.20;;;;;;5125896;27;19923;-58
2021/07/01 03:41:07;;;;;;;;;;;27.70;50.30;;;;;;5134772;27;19923;-58
2021/07/01 03:43:39;;;;;;;;;;;27.70;50.20;;;;;;5135300;27;19927;-58
2021/07/01 03:46:06;;;;;;;;;;;27.70;50.20;;;;;;5134676;27;19923;-58
2021/07/01 03:48:33;;;;;;;;;;;27.70;50.20;;;;;;5135117;27;20395;-58
2021/07/01 03:51:00;;;;;;;;;;;27.70;50.20;;;;;;5135597;27;20035;-58
2021/07/01 03:53:27;;;;;;;;;;;27.70;50.20;;;;;;5136440;27;19931;-56
2021/07/01 03:55:54;;;;;;;;;;;27.70;50.20;;;;;;5134902;27;19962;-58
2021/07/01 03:58:21;;;;;;;;;;;27.70;50.10;;;;;;5133825;27;19955;-58
2021/07/01 04:00:48;;;;;;;;;;;27.70;50.10;;;;;;5134766;27;19924;-58
2021/07/01 04:03:15;;;;;;;;;;;27.70;50.00;;;;;;5133631;27;19973;-58
2021/07/01 04:05:42;;;;;;;;;;;27.80;50.10;;;;;;5134648;27;19931;-58
2021/07/01 04:08:09;;;;;;;;;;;27.80;50.10;;;;;;5134119;27;20061;-58
2021/07/01 04:10:35;;;;;;;;;;;27.80;50.00;;;;;;5134970;27;19927;-58
2021/07/01 04:13:02;;;;;;;;;;;27.80;50.00;;;;;;5133885;27;19923;-58
2021/07/01 04:15:30;;;;;;;;;;;27.80;50.00;;;;;;5133810;27;19923;-58
2021/07/01 04:17:57;;;;;;;;;;;27.80;49.90;;;;;;5133836;27;20012;-58
2021/07/01 04:20:24;;;;;;;;;;;27.80;49.90;;;;;;5132088;27;19923;-58
2021/07/01 04:22:51;;;;;;;;;;;27.80;49.90;;;;;;5133573;27;19953;-58
2021/07/01 04:25:18;;;;;;;;;;;27.80;49.90;;;;;;5133232;27;19927;-58
2021/07/01 04:27:45;;;;;;;;;;;27.80;49.80;;;;;;5123635;27;19923;-58
2021/07/01 04:30:12;;;;;;;;;;;27.80;49.80;;;;;;5112101;27;19992;-58
2021/07/01 04:32:39;;;;;;;;;;;27.80;49.80;;;;;;5125253;27;20014;-58
2021/07/01 04:35:06;;;;;;;;;;;27.80;49.80;;;;;;5117380;27;20005;-58
2021/07/01 04:37:34;;;;;;;;;;;27.80;49.80;;;;;;5131376;27;19930;-58
2021/07/01 04:40:07;;;;;;;;;;;27.80;49.80;;;;;;5134647;27;20278;-58
2021/07/01 04:42:35;;;;;;;;;;;27.80;49.70;;;;;;5132089;27;20363;-58
2021/07/01 04:45:05;;;;;;;;;;;27.80;49.70;;;;;;5134257;27;19951;-57
2021/07/01 04:47:32;;;;;;;;;;;27.80;49.70;;;;;;5134614;27;19985;-57
2021/07/01 04:50:02;;;;;;;;;;;27.80;49.70;;;;;;5131748;27;20340;-57
2021/07/01 04:52:29;;;;;;;;;;;27.80;49.70;;;;;;5131568;27;19970;-57
2021/07/01 04:54:56;;;;;;;;;;;27.80;49.70;;;;;;5133962;27;20267;-57
2021/07/01 04:57:23;;;;;;;;;;;27.80;49.60;;;;;;5132807;27;20018;-57
2021/07/01 04:59:50;;;;;;;;;;;27.80;49.60;;;;;;5132733;27;19924;-57
2021/07/01 05:02:17;;;;;;;;;;;27.80;49.60;;;;;;5131296;27;19924;-57
2021/07/01 05:04:44;;;;;;;;;;;27.80;49.60;;;;;;5133281;27;19938;-57
2021/07/01 05:07:11;;;;;;;;;;;27.80;49.60;;;;;;5114533;27;19923;-57
2021/07/01 05:09:38;;;;;;;;;;;27.90;49.70;;;;;;5115803;27;19972;-58
2021/07/01 05:12:05;;;;;;;;;;;27.80;49.60;;;;;;5115697;27;19924;-58
2021/07/01 05:14:33;;;;;;;;;;;27.80;49.60;;;;;;5134165;27;19970;-57
2021/07/01 05:16:59;;;;;;;;;;;27.80;49.60;;;;;;5133999;27;19984;-57
2021/07/01 05:19:27;;;;;;;;;;;27.80;49.50;;;;;;5133900;27;19927;-58
2021/07/01 05:21:53;;;;;;;;;;;27.90;49.60;;;;;;5119263;27;20432;-58
2021/07/01 05:24:20;;;;;;;;;;;27.90;49.50;;;;;;5112871;27;19923;-58
2021/07/01 05:26:48;;;;;;;;;;;28.00;49.50;;;;;;5121093;27;19959;-58
2021/07/01 05:29:16;;;;;;;;;;;27.90;49.40;;;;;;5110823;27;19931;-58
2021/07/01 05:32:03;;;;;;;;;;;28.00;49.40;;;;;;5117586;27;19971;-58
2021/07/01 05:34:30;;;;;;;;;;;28.00;49.20;;;;;;5127443;27;19924;-58
2021/07/01 05:36:57;;;;;;;;;;;28.10;49.20;;;;;;5132937;27;19968;-58
2021/07/01 05:39:24;;;;;;;;;;;28.10;49.00;;;;;;5122201;27;20400;-58
2021/07/01 05:41:51;;;;;;;;;;;28.20;49.00;;;;;;5099256;28;19939;-58
2021/07/01 05:44:18;;;;;;;;;;;28.20;48.90;;;;;;5123230;27;19927;-58
2021/07/01 05:46:45;;;;;;;;;;;28.20;48.90;;;;;;5130232;27;19949;-58
2021/07/01 05:49:13;;;;;;;;;;;28.20;48.90;;;;;;5132610;27;19923;-58
2021/07/01 05:51:41;;;;;;;;;;;28.20;48.80;;;;;;5133974;27;19923;-58
2021/07/01 05:54:24;;;;;;;;;;;28.20;48.80;;;;;;5132431;27;19924;-58
2021/07/01 05:56:51;;;;;;;;;;;28.20;48.70;;;;;;5127138;27;19923;-58
2021/07/01 05:59:20;;;;;;;;;;;28.30;48.80;;;;;;5119204;27;19924;-58
2021/07/01 06:01:47;;;;;;;;;;;28.30;48.80;;;;;;5115161;27;19930;-58
2021/07/01 06:04:14;;;;;;;;;;;28.30;48.70;;;;;;5115633;27;20136;-57
2021/07/01 06:06:45;;;;;;;;;;;28.30;48.60;;;;;;5129959;27;19974;-58
2021/07/01 06:09:13;;;;;;;;;;;28.30;48.60;;;;;;5132632;27;20450;-58
2021/07/01 06:11:41;;;;;;;;;;;28.40;48.60;;;;;;5132636;27;19949;-59
2021/07/01 06:14:08;;;;;;;;;;;28.40;48.50;;;;;;5130938;27;20437;-58
2021/07/01 06:16:36;;;;;;;;;;;28.40;48.50;;;;;;5131261;27;20079;-58
2021/07/01 06:19:04;;;;;;;;;;;28.40;49.00;;;;;;5131257;27;19974;-59
2021/07/01 06:21:32;;;;;;;;;;;28.40;48.40;;;;;;5132778;27;19923;-59
2021/07/01 06:23:59;;;;;;;;;;;28.40;48.40;;;;;;5131574;27;19927;-47
2021/07/01 06:26:28;;;;;;;;;;;28.40;48.40;;;;;;5131730;27;19923;-47
2021/07/01 06:28:56;;;;;;;;;;;28.40;48.30;;;;;;5130986;27;19927;-49
2021/07/01 06:31:23;;;;;;;;;;;28.40;48.30;;;;;;5130467;27;20034;-48
2021/07/01 06:33:51;;;;;;;;;;;28.50;48.30;;;;;;5130799;27;19963;-59
2021/07/01 06:36:19;;;;;;;;;;;28.50;48.30;;;;;;5127260;27;19969;-59
2021/07/01 06:38:47;;;;;;;;;;;28.50;48.20;;;;;;5131174;28;19972;-59
2021/07/01 06:41:17;;;;;;;;;;;28.50;48.20;;;;;;5130531;28;19978;-50
2021/07/01 06:43:48;;;;;;;;;;;28.60;48.20;;;;;;5133667;27;19930;-59
2021/07/01 06:46:16;;;;;;;;;;;28.60;48.20;;;;;;5133939;27;19976;-59
2021/07/01 06:48:46;;;;;;;;;;;28.60;48.10;;;;;;5135311;27;19931;-59
2021/07/01 06:51:13;;;;;;;;;;;28.60;48.10;;;;;;5134318;27;19923;-59
2021/07/01 06:53:41;;;;;;;;;;;28.60;48.00;;;;;;5135176;27;20313;-59
2021/07/01 06:56:08;;;;;;;;;;;28.60;47.90;;;;;;5134023;27;19924;-59
2021/07/01 06:58:36;;;;;;;;;;;28.70;48.00;;;;;;5137234;27;20014;-59
2021/07/01 07:01:03;;;;;;;;;;;28.70;47.80;;;;;;5134183;27;19972;-59
2021/07/01 07:03:31;;;;;;;;;;;28.70;47.70;;;;;;5134939;27;19931;-59
2021/07/01 07:06:01;;;;;;;;;;;28.80;47.70;;;;;;5135476;27;19923;-59
2021/07/01 07:08:29;;;;;;;;;;;28.80;47.50;;;;;;5134378;27;19923;-61
2021/07/01 07:10:56;;;;;;;;;;;28.80;47.40;;;;;;5135378;27;19932;-59
2021/07/01 07:13:26;;;;;;;;;;;28.90;47.40;;;;;;5135334;27;19923;-59
2021/07/01 07:15:57;;;;;;;;;;;28.90;47.30;;;;;;5135160;27;19924;-59
2021/07/01 07:18:30;;;;;;;;;;;28.90;47.20;;;;;;5117880;27;19924;-59
2021/07/01 07:20:58;;;;;;;;;;;28.90;47.20;;;;;;5133822;27;19930;-59
2021/07/01 07:23:29;;;;;;;;;;;28.90;47.20;;;;;;5118873;27;19967;-59
2021/07/01 07:25:58;;;;;;;;;;;29.00;47.10;;;;;;5135500;27;20336;-59
2021/07/01 07:28:32;;;;;;;;;;;29.00;47.10;;;;;;5118458;27;19924;-60
2021/07/01 07:31:00;;;;;;;;;;;29.00;47.00;;;;;;5118544;27;19984;-59
2021/07/01 07:33:27;;;;;;;;;;;29.10;47.00;;;;;;5134707;27;20393;-59
2021/07/01 07:35:54;;;;;;;;;;;29.10;46.90;;;;;;5129549;27;19977;-59
2021/07/01 07:38:24;;;;;;;;;;;29.10;46.90;;;;;;5134947;27;19967;-59
2021/07/01 07:40:52;;;;;;;;;;;29.20;46.90;;;;;;5133542;27;19923;-59
2021/07/01 07:43:20;;;;;;;;;;;29.20;46.70;;;;;;5134685;27;19966;-57
2021/07/01 07:45:48;;;;;;;;;;;29.20;46.70;;;;;;5135535;27;19923;-59
2021/07/01 07:48:15;;;;;;;;;;;29.20;46.70;;;;;;5133015;27;20095;-59
2021/07/01 07:50:44;;;;;;;;;;;29.30;46.60;;;;;;5136322;27;20371;-59
2021/07/01 07:53:16;;;;;;;;;;;29.30;46.70;;;;;;5117566;27;19924;-59
2021/07/01 07:55:44;;;;;;;;;;;29.30;46.70;;;;;;5132086;27;20023;-59
2021/07/01 07:58:16;;;;;;;;;;;29.30;46.70;;;;;;5133332;27;19943;-59
2021/07/01 08:00:43;;;;;;;;;;;29.30;46.70;;;;;;5123753;27;19923;-59
2021/07/01 08:03:11;;;;;;;;;;;29.30;46.70;;;;;;5128903;27;19923;-59
2021/07/01 08:05:39;;;;;;;;;;;29.30;46.70;;;;;;5115466;27;20324;-59
2021/07/01 08:08:11;;;;;;;;;;;29.30;46.70;;;;;;5134773;27;19928;-59
2021/07/01 08:10:39;;;;;;;;;;;29.30;46.70;;;;;;5133876;27;19974;-51
2021/07/01 08:13:07;;;;;;;;;;;29.20;46.70;;;;;;5132261;27;19931;-59
2021/07/01 08:15:35;;;;;;;;;;;29.30;46.80;;;;;;5134264;27;20006;-58
2021/07/01 08:18:03;;;;;;;;;;;29.20;46.80;;;;;;5134722;27;19923;-59
2021/07/01 08:20:30;;;;;;;;;;;29.20;46.90;;;;;;5134593;27;19983;-59
2021/07/01 08:22:58;;;;;;;;;;;29.20;46.80;;;;;;5133443;27;20021;-59
2021/07/01 08:25:26;;;;;;;;;;;29.20;46.90;;;;;;5133026;27;19927;-59
2021/07/01 08:27:54;;;;;;;;;;;29.20;47.00;;;;;;5132529;27;19923;-59
2021/07/01 08:30:23;;;;;;;;;;;29.10;47.00;;;;;;5135874;27;19958;-59
2021/07/01 08:32:55;;;;;;;;;;;29.10;47.00;;;;;;5134535;27;19970;-59
2021/07/01 08:35:23;;;;;;;;;;;29.00;47.10;;;;;;5131507;27;19924;-59
2021/07/01 08:37:51;;;;;;;;;;;29.00;47.90;;;;;;5133412;27;19986;-59
2021/07/01 08:40:19;;;;;;;;;;;28.90;47.30;;;;;;5115805;27;19949;-59
2021/07/01 08:42:49;;;;;;;;;;;29.00;47.30;;;;;;5134905;27;19928;-59
2021/07/01 08:45:16;;;;;;;;;;;29.00;47.40;;;;;;5116742;27;20336;-59
2021/07/01 08:47:44;;;;;;;;;;;29.00;47.30;;;;;;5134354;27;19930;-59
2021/07/01 08:50:15;;;;;;;;;;;29.00;47.30;;;;;;5133758;27;19923;-59
2021/07/01 08:53:00;;;;;;;;;;;29.10;47.40;;;;;;5135742;27;19966;-59
2021/07/01 08:55:28;;;;;;;;;;;29.10;47.30;;;;;;5112476;28;19928;-59
2021/07/01 08:57:56;;;;;;;;;;;29.10;47.20;;;;;;5113491;27;20010;-59
2021/07/01 09:00:24;;;;;;;;;;;29.20;47.20;;;;;;5095811;28;20550;-59
2021/07/01 09:03:04;;;;;;;;;;;29.20;47.10;;;;;;5110186;28;19924;-59
2021/07/01 09:05:32;;;;;;;;;;;29.20;47.10;;;;;;5098014;28;19973;-59
2021/07/01 09:08:00;;;;;;;;;;;29.30;47.10;;;;;;5113319;28;19959;-59
2021/07/01 09:10:30;;;;;;;;;;;29.30;46.90;;;;;;5114725;28;19934;-59
2021/07/01 09:12:58;;;;;;;;;;;29.30;46.90;;;;;;5112044;28;20436;-59
2021/07/01 09:15:26;;;;;;;;;;;29.30;46.90;;;;;;5110520;28;19924;-59
2021/07/01 09:17:53;;;;;;;;;;;29.30;46.90;;;;;;5100570;28;20040;-59
2021/07/01 09:20:34;;;;;;;;;;;29.30;46.80;;;;;;5107367;28;20295;-59
2021/07/01 09:23:02;;;;;;;;;;;29.30;46.70;;;;;;5114489;28;19927;-59
2021/07/01 09:25:30;;;;;;;;;;;29.30;46.60;;;;;;5112192;28;19928;-59
2021/07/01 09:27:58;;;;;;;;;;;29.40;46.70;;;;;;5111578;28;19924;-59
2021/07/01 09:30:26;;;;;;;;;;;29.30;46.60;;;;;;5110549;28;19928;-59
2021/07/01 09:32:55;;;;;;;;;;;29.40;46.70;;;;;;5104070;28;19962;-59
2021/07/01 09:35:23;;;;;;;;;;;29.40;46.70;;;;;;5101971;28;19924;-59
2021/07/01 09:37:51;;;;;;;;;;;29.40;46.70;;;;;;5105118;28;20346;-59
2021/07/01 09:40:22;;;;;;;;;;;29.40;46.70;;;;;;5112954;28;20039;-59
2021/07/01 09:42:52;;;;;;;;;;;29.40;46.70;;;;;;5112247;28;19960;-59
2021/07/01 09:45:20;;;;;;;;;;;29.40;46.60;;;;;;5107402;28;19971;-59
2021/07/01 09:47:50;;;;;;;;;;;29.40;46.70;;;;;;5100918;28;19970;-59
2021/07/01 09:50:18;;;;;;;;;;;29.40;46.70;;;;;;5106652;28;20359;-59
2021/07/01 09:52:45;;;;;;;;;;;29.40;46.70;;;;;;5098098;28;19930;-58
2021/07/01 09:55:12;;;;;;;;;;;29.40;46.60;;;;;;5125572;27;19990;-59
2021/07/01 09:57:44;;;;;;;;;;;29.50;46.60;;;;;;5133850;27;19928;-59
2021/07/01 10:00:12;;;;;;;;;;;29.50;46.40;;;;;;5132473;27;19949;-59
2021/07/01 10:02:39;;;;;;;;;;;29.50;46.40;;;;;;5133817;27;20093;-58
2021/07/01 10:05:07;;;;;;;;;;;29.60;46.50;;;;;;5131419;27;19976;-59
2021/07/01 10:07:47;;;;;;;;;;;29.60;46.40;;;;;;5114414;27;19973;-59
2021/07/01 10:10:14;;;;;;;;;;;29.60;46.40;;;;;;5123441;27;19923;-59
2021/07/01 10:13:01;;;;;;;;;;;29.60;46.30;;;;;;5132636;27;19927;-59
2021/07/01 10:15:32;;;;;;;;;;;29.60;46.30;;;;;;5115845;27;19924;-59
2021/07/01 10:18:09;;;;;;;;;;;29.60;46.10;;;;;;5115150;27;19972;-59
2021/07/01 10:20:54;;;;;;;;;;;29.70;46.20;;;;;;5129257;27;20296;-59
2021/07/01 10:23:28;;;;;;;;;;;29.70;46.10;;;;;;5080890;28;19975;-59
2021/07/01 10:25:57;;;;;;;;;;;29.70;46.10;;;;;;5115233;28;19923;-59
2021/07/01 10:28:25;;;;;;;;;;;29.70;46.10;;;;;;5116921;27;19974;-59
2021/07/01 10:30:55;;;;;;;;;;;29.70;46.00;;;;;;5133378;27;20379;-59
2021/07/01 10:33:22;;;;;;;;;;;29.70;46.00;;;;;;5131842;27;19931;-59
2021/07/01 10:35:50;;;;;;;;;;;29.70;45.90;;;;;;5112659;28;19932;-59
2021/07/01 10:38:18;;;;;;;;;;;29.70;45.90;;;;;;5132527;28;19928;-59
2021/07/01 10:40:47;;;;;;;;;;;29.80;46.00;;;;;;5114017;28;20378;-59
2021/07/01 10:43:15;;;;;;;;;;;29.70;46.00;;;;;;5131166;28;20020;-59
2021/07/01 10:45:52;;;;;;;;;;;29.70;46.10;;;;;;5130827;28;19972;-59
2021/07/01 10:48:20;;;;;;;;;;;29.60;46.10;;;;;;5132051;28;19927;-59
2021/07/01 10:50:48;;;;;;;;;;;29.60;46.30;;;;;;5133553;28;19971;-59
2021/07/01 10:53:27;;;;;;;;;;;29.60;46.30;;;;;;5129942;28;19972;-59
2021/07/01 10:55:57;;;;;;;;;;;29.50;46.30;;;;;;5131076;28;19967;-59
2021/07/01 10:58:24;;;;;;;;;;;29.50;46.40;;;;;;5129477;28;19931;-59
2021/07/01 11:00:51;;;;;;;;;;;29.50;46.40;;;;;;5129905;28;19959;-59
2021/07/01 11:03:28;;;;;;;;;;;29.50;46.40;;;;;;5131102;28;20480;-59
2021/07/01 11:05:56;;;;;;;;;;;29.60;46.40;;;;;;5130610;28;20302;-59
2021/07/01 11:08:23;;;;;;;;;;;29.50;46.40;;;;;;5130571;28;19968;-59
2021/07/01 11:10:53;;;;;;;;;;;29.60;46.30;;;;;;5118438;28;19931;-59
2021/07/01 11:13:24;;;;;;;;;;;29.60;46.30;;;;;;5127349;28;19923;-59
2021/07/01 11:16:08;;;;;;;;;;;29.60;46.30;;;;;;5132229;28;19923;-59
2021/07/01 11:18:43;;;;;;;;;;;29.60;46.20;;;;;;5130339;28;20394;-59
2021/07/01 11:21:17;;;;;;;;;;;29.60;46.30;;;;;;5119375;28;19923;-59
2021/07/01 11:23:45;;;;;;;;;;;29.50;46.30;;;;;;5126283;28;19924;-58
2021/07/01 11:26:29;;;;;;;;;;;29.60;46.40;;;;;;5129388;28;19927;-59
2021/07/01 11:28:56;;;;;;;;;;;29.50;46.40;;;;;;5130661;27;19931;-59
2021/07/01 11:31:44;;;;;;;;;;;29.50;46.40;;;;;;5134230;27;19938;-59
2021/07/01 11:34:12;;;;;;;;;;;29.50;46.40;;;;;;5133203;27;19974;-59
2021/07/01 11:36:39;;;;;;;;;;;29.50;46.50;;;;;;5133405;27;19924;-59
2021/07/01 11:39:09;;;;;;;;;;;29.50;46.50;;;;;;5134237;27;19975;-59
2021/07/01 11:41:37;;;;;;;;;;;29.50;46.50;;;;;;5134991;27;19974;-58
2021/07/01 11:44:05;;;;;;;;;;;29.50;46.50;;;;;;5135828;27;19924;-59
2021/07/01 11:46:32;;;;;;;;;;;29.50;46.60;;;;;;5118204;27;20383;-59
2021/07/01 11:49:02;;;;;;;;;;;29.50;46.60;;;;;;5134961;27;20448;-58
2021/07/01 11:51:31;;;;;;;;;;;29.50;46.70;;;;;;5133877;27;20303;-59
2021/07/01 11:53:59;;;;;;;;;;;29.50;46.60;;;;;;5133790;27;19951;-59
2021/07/01 11:56:25;;;;;;;;;;;29.50;46.70;;;;;;5135093;27;19924;-59
2021/07/01 11:58:53;;;;;;;;;;;29.50;46.60;;;;;;5133586;27;19977;-58
2021/07/01 12:01:20;;;;;;;;;;;29.50;46.50;;;;;;5130294;27;19967;-58
2021/07/01 12:03:52;;;;;;;;;;;29.50;46.50;;;;;;5135044;27;19930;-59
2021/07/01 12:06:31;;;;;;;;;;;29.50;46.60;;;;;;5134903;27;19923;-58
2021/07/01 12:08:59;;;;;;;;;;;29.40;46.70;;;;;;5135572;27;19923;-58
2021/07/01 12:11:26;;;;;;;;;;;29.30;46.70;;;;;;5133660;27;19968;-58
2021/07/01 12:13:53;;;;;;;;;;;29.30;46.80;;;;;;5130754;27;20276;-58
2021/07/01 12:16:20;;;;;;;;;;;29.30;46.80;;;;;;5121890;27;19923;-59
2021/07/01 12:18:46;;;;;;;;;;;29.40;46.90;;;;;;5116991;27;19923;-58
2021/07/01 12:21:24;;;;;;;;;;;29.40;46.90;;;;;;5134984;27;20006;-59
2021/07/01 12:24:01;;;;;;;;;;;29.40;46.80;;;;;;5133934;27;19924;-58
2021/07/01 12:26:29;;;;;;;;;;;29.40;46.70;;;;;;5133535;27;19923;-58
2021/07/01 12:28:57;;;;;;;;;;;29.50;46.60;;;;;;5131972;27;19931;-58
2021/07/01 12:31:25;;;;;;;;;;;29.50;46.50;;;;;;5132302;27;19924;-59
2021/07/01 12:34:03;;;;;;;;;;;29.50;46.40;;;;;;5116637;27;19962;-58
2021/07/01 12:36:41;;;;;;;;;;;29.60;46.50;;;;;;5116040;27;19924;-58
2021/07/01 12:39:10;;;;;;;;;;;29.60;46.40;;;;;;5117975;27;19927;-58
2021/07/01 12:41:43;;;;;;;;;;;29.60;46.40;;;;;;5097971;27;19924;-58
2021/07/01 12:44:14;;;;;;;;;;;29.60;46.30;;;;;;5115746;27;20406;-58
2021/07/01 12:46:40;;;;;;;;;;;29.60;46.20;;;;;;5116055;27;19976;-58
2021/07/01 12:49:25;;;;;;;;;;;29.60;46.10;;;;;;5133406;27;19980;-58
2021/07/01 12:51:56;;;;;;;;;;;29.60;46.20;;;;;;5117385;27;19932;-58
2021/07/01 12:54:23;;;;;;;;;;;29.50;46.20;;;;;;5117345;27;19969;-58
2021/07/01 12:56:51;;;;;;;;;;;29.50;46.40;;;;;;5132518;27;20363;-59
2021/07/01 12:59:18;;;;;;;;;;;29.50;46.40;;;;;;5133255;27;19927;-58
2021/07/01 13:01:45;;;;;;;;;;;29.50;46.40;;;;;;5116831;27;20317;-58
2021/07/01 13:04:12;;;;;;;;;;;29.50;46.30;;;;;;5115497;27;19977;-58
2021/07/01 13:06:41;;;;;;;;;;;29.50;46.40;;;;;;5114004;27;21358;-58
2021/07/01 13:09:09;;;;;;;;;;;29.50;46.40;;;;;;5131227;27;20379;-58
2021/07/01 13:11:42;;;;;;;;;;;29.40;46.50;;;;;;5119744;27;19930;-58
2021/07/01 13:14:21;;;;;;;;;;;29.30;46.50;;;;;;5129404;27;20324;-58
2021/07/01 13:17:01;;;;;;;;;;;29.30;46.70;;;;;;5132454;27;19984;-58
2021/07/01 13:19:28;;;;;;;;;;;29.30;46.70;;;;;;5131303;27;19928;-58
2021/07/01 13:21:56;;;;;;;;;;;29.30;46.80;;;;;;5114124;27;19931;-58
2021/07/01 13:24:23;;;;;;;;;;;29.30;46.80;;;;;;5133469;27;19950;-58
2021/07/01 13:26:55;;;;;;;;;;;29.30;46.80;;;;;;5131223;27;20294;-57
2021/07/01 13:29:36;;;;;;;;;;;29.30;46.80;;;;;;5133170;27;20260;-57
2021/07/01 13:32:04;;;;;;;;;;;29.30;46.90;;;;;;5132216;27;19930;-58
2021/07/01 13:34:31;;;;;;;;;;;29.30;46.90;;;;;;5132235;27;19924;-58
2021/07/01 13:37:17;;;;;;;;;;;29.20;46.90;;;;;;5131906;27;19927;-58
2021/07/01 13:39:44;;;;;;;;;;;29.20;46.90;;;;;;5116506;27;19992;-58
2021/07/01 13:42:31;;;;;;;;;;;29.20;46.90;;;;;;5115991;27;19968;-59
2021/07/01 13:45:07;;;;;;;;;;;29.30;46.90;;;;;;5130516;27;19931;-59
2021/07/01 13:47:45;;;;;;;;;;;29.30;46.90;;;;;;5130622;27;19923;-58
2021/07/01 13:50:20;;;;;;;;;;;29.30;46.80;;;;;;5130454;27;20006;-58
2021/07/01 13:52:48;;;;;;;;;;;29.30;46.90;;;;;;5133036;27;19992;-58
2021/07/01 13:55:23;;;;;;;;;;;29.30;46.90;;;;;;5131533;27;19939;-58
2021/07/01 13:57:50;;;;;;;;;;;29.30;46.80;;;;;;5132535;27;19946;-58
2021/07/01 14:00:21;;;;;;;;;;;29.30;46.90;;;;;;5132903;27;20399;-59
2021/07/01 14:02:49;;;;;;;;;;;29.30;46.80;;;;;;5133262;27;19923;-58
2021/07/01 14:05:28;;;;;;;;;;;29.20;46.90;;;;;;5131541;27;19945;-58
2021/07/01 14:07:55;;;;;;;;;;;29.20;47.00;;;;;;5118572;27;19928;-58
2021/07/01 14:10:27;;;;;;;;;;;29.20;47.10;;;;;;5127994;27;19988;-58
2021/07/01 14:12:54;;;;;;;;;;;29.20;47.10;;;;;;5130475;27;20332;-58
2021/07/01 14:15:21;;;;;;;;;;;29.20;47.10;;;;;;5130084;27;20383;-58
2021/07/01 14:17:48;;;;;;;;;;;29.20;47.10;;;;;;5131016;27;19930;-58
2021/07/01 14:20:16;;;;;;;;;;;29.20;47.10;;;;;;5130271;27;20324;-59
2021/07/01 14:22:43;;;;;;;;;;;29.20;47.10;;;;;;5131061;27;19968;-58
2021/07/01 14:25:33;;;;;;;;;;;29.20;47.10;;;;;;5131039;27;19923;-58
2021/07/01 14:28:02;;;;;;;;;;;29.20;47.10;;;;;;5131150;27;19924;-58